Healdsburg, CA (95448)

8:45 PM PDT on July 25, 2016 (GMT -0700)
Healdsburg HS | | Change Station

Elev 148 ft 38.62 °N, 122.87 °W | Updated 12 minutes ago

Haze
Haze
80.4 °F
Feels Like 81 °F
N
1.2
Wind Variable Wind from NW

Today
High -- | Low -- °F
--% Chance of Precip.
Yesterday
High -- | Low -- °F
Precip. -- in
Pressure 29.86 in
Visibility 10.0 miles
Clouds Clear
Heat Index 81 °F
Dew Point 57 °F
Humidity 45%
Rainfall Not available.
Snow Depth Not available.
6:07 AM 8:27 PM
Waning Gibbous, 59% visible
METAR KSTS 260253Z AUTO 16009KT 10SM HZ CLR 22/12 A2987 RMK AO2 SLP109 T02170122 53003
Pressure 29.86 in
Visibility 10.0 miles
Clouds Clear
Heat Index 81 °F
Dew Point 57 °F
Humidity 45%
Rainfall Not available.
Snow Depth Not available.
6:07 AM 8:27 PM
Waning Gibbous, 59% visible
METAR KSTS 260253Z AUTO 16009KT 10SM HZ CLR 22/12 A2987 RMK AO2 SLP109 T02170122 53003

10-Day Weather Forecast

Almanac

Astronomy

Jul. 25, 2016 Rise Set
Actual Time
Civil Twilight
Nautical Twilight
Astronomical Twilight
Moon
Length of Visible Light
Length of Day
Tomorrow will be .
, % of the Moon is Illuminated

Today's Extremes

State Highs State Lows

Community

WunderPhotos

Upload Photos

1,927,523 photos uploaded!

WunderBlog® & News

Nearby

Air Quality

  Air Quality AQ Index Pollutant
Not available.

Snow Depth

Station Depth Elevation

Earthquake Activity

City Distance Mag. Time & Date
Minimum magnitude displayed is 2.5.

Coastal Water Temperatures

Place Temperature

Stations

Nearby Weather Stations

Station Location Temp. Windchill Dew Point Humidity Wind Precip. Elev Updated Type
                   

Watches & Warnings

There are currently no watches in effect.